createdAt,value
2022-10-17T00:00:52.625Z,81.55
2022-10-17T00:05:54.558Z,81.52
2022-10-17T00:11:03.585Z,81.45
2022-10-17T00:16:06.577Z,81.42
2022-10-17T00:21:25.561Z,81.32
2022-10-17T00:26:29.660Z,81.29
2022-10-17T00:31:32.179Z,81.25
2022-10-17T00:36:35.051Z,81.23
2022-10-17T00:41:37.209Z,80.95
2022-10-17T00:46:40.736Z,80.70
2022-10-17T00:51:51.867Z,80.44
2022-10-17T00:56:55.015Z,80.57
2022-10-17T01:02:02.476Z,80.64
2022-10-17T01:07:05.359Z,80.51
2022-10-17T01:12:22.372Z,80.39
2022-10-17T01:17:41.014Z,80.23
2022-10-17T01:22:57.123Z,80.12
2022-10-17T01:28:17.800Z,80.11
2022-10-17T01:33:37.876Z,80.06
2022-10-17T01:38:50.552Z,80.07
2022-10-17T01:43:58.360Z,79.92
2022-10-17T01:49:02.768Z,79.89
2022-10-17T01:54:13.926Z,79.90
2022-10-17T01:59:24.487Z,79.86
2022-10-17T02:04:26.849Z,79.95
2022-10-17T02:09:28.745Z,80.50
2022-10-17T02:14:49.252Z,80.41
2022-10-17T02:20:23.946Z,80.48
2022-10-17T02:25:57.069Z,80.55
2022-10-17T02:31:13.286Z,80.46
2022-10-17T02:36:33.989Z,80.61
2022-10-17T02:41:38.233Z,80.84
2022-10-17T02:46:42.863Z,81.07
2022-10-17T02:51:52.755Z,81.34
2022-10-17T02:57:01.408Z,81.43
2022-10-17T03:02:05.173Z,81.46
2022-10-17T03:07:07.429Z,81.44
2022-10-17T03:12:09.384Z,81.55
2022-10-17T03:17:11.489Z,81.75
2022-10-17T03:22:14.233Z,81.77
2022-10-17T03:27:18.221Z,81.86
2022-10-17T03:32:20.518Z,81.84
2022-10-17T03:37:23.396Z,81.88
2022-10-17T03:42:25.490Z,81.62
2022-10-17T03:47:29.147Z,81.42
2022-10-17T03:52:31.680Z,81.39
2022-10-17T03:57:35.919Z,81.40
2022-10-17T04:02:39.433Z,81.37
2022-10-17T04:07:41.576Z,81.32
2022-10-17T04:12:46.004Z,81.29
2022-10-17T04:17:54.807Z,81.29
2022-10-17T04:23:10.096Z,81.33
2022-10-17T04:28:12.322Z,81.29
2022-10-17T04:33:15.117Z,81.34
2022-10-17T04:38:17.286Z,81.31
2022-10-17T04:43:19.838Z,81.50
2022-10-17T04:48:22.154Z,81.61
2022-10-17T04:53:24.911Z,81.66
2022-10-17T04:58:33.893Z,81.75
2022-10-17T05:03:36.422Z,81.79
2022-10-17T05:08:38.839Z,81.81
2022-10-17T05:13:42.010Z,81.76
2022-10-17T05:18:44.136Z,81.72
2022-10-17T05:23:46.498Z,81.59
2022-10-17T05:28:49.056Z,81.46
2022-10-17T05:33:51.909Z,81.38
2022-10-17T05:38:53.957Z,81.26
2022-10-17T05:43:57.803Z,81.12
2022-10-17T05:49:33.350Z,81.10
2022-10-17T05:54:42.306Z,81.02
2022-10-17T05:59:44.460Z,80.84
2022-10-17T06:04:51.094Z,80.60
2022-10-17T06:10:15.710Z,80.26
2022-10-17T06:15:31.101Z,79.82
2022-10-17T06:20:46.702Z,79.31
2022-10-17T06:26:04.081Z,78.78
2022-10-17T06:31:08.502Z,78.24
2022-10-17T06:36:13.425Z,77.73
2022-10-17T06:41:18.918Z,77.15
2022-10-17T06:46:21.154Z,76.53
2022-10-17T06:51:43.129Z,75.91
2022-10-17T06:56:47.746Z,75.48
2022-10-17T07:02:25.198Z,75.00
2022-10-17T07:07:32.502Z,74.70
2022-10-17T07:12:35.349Z,74.30
2022-10-17T07:17:37.406Z,73.76
2022-10-17T07:22:39.854Z,73.29
2022-10-17T07:27:42.396Z,73.01
2022-10-17T07:32:44.702Z,72.55
2022-10-17T07:37:46.496Z,71.94
2022-10-17T07:42:50.235Z,71.21
2022-10-17T07:47:57.957Z,70.78
2022-10-17T07:52:59.884Z,70.54
2022-10-17T07:58:01.812Z,70.10
2022-10-17T08:03:04.686Z,69.41
2022-10-17T08:08:06.500Z,68.58
2022-10-17T08:13:13.812Z,68.03
2022-10-17T08:18:15.923Z,67.46
2022-10-17T08:23:17.671Z,66.70
2022-10-17T08:28:19.400Z,66.10
2022-10-17T08:33:21.273Z,65.59
2022-10-17T08:38:26.196Z,64.94
2022-10-17T08:43:33.275Z,64.49
2022-10-17T08:48:45.513Z,64.46
2022-10-17T08:53:57.980Z,63.89
2022-10-17T08:59:00.128Z,62.11
2022-10-17T09:04:20.191Z,60.61
2022-10-17T09:09:45.092Z,60.17
2022-10-17T09:14:58.074Z,59.66
2022-10-17T09:20:16.246Z,59.43
2022-10-17T09:25:20.726Z,59.20
2022-10-17T09:30:46.132Z,58.39
2022-10-17T09:35:49.524Z,57.81
2022-10-17T09:40:57.295Z,57.37
2022-10-17T09:46:08.694Z,56.74
2022-10-17T09:51:22.061Z,56.07
2022-10-17T09:56:27.294Z,56.16
2022-10-17T10:01:31.633Z,55.35
2022-10-17T10:06:34.026Z,54.05
2022-10-17T10:11:49.896Z,54.42
2022-10-17T10:16:53.824Z,54.23
2022-10-17T10:22:23.653Z,53.85
2022-10-17T10:27:26.945Z,53.28
2022-10-17T10:32:35.397Z,52.35
2022-10-17T10:37:43.895Z,51.61
2022-10-17T10:42:55.240Z,51.29
2022-10-17T10:48:02.485Z,50.88
2022-10-17T10:53:34.085Z,50.31
2022-10-17T10:58:43.862Z,50.73
2022-10-17T11:04:01.824Z,50.24
2022-10-17T11:09:29.948Z,50.08
2022-10-17T11:14:42.470Z,50.54
2022-10-17T11:19:53.468Z,50.30
2022-10-17T11:25:05.112Z,49.75
2022-10-17T11:30:29.809Z,49.86
2022-10-17T11:35:46.219Z,49.50
2022-10-17T11:40:51.997Z,49.08
2022-10-17T11:46:05.694Z,49.06
2022-10-17T11:57:03.220Z,48.61
2022-10-17T12:02:12.676Z,48.23
2022-10-17T12:07:22.595Z,47.65
2022-10-17T12:12:31.190Z,47.97
2022-10-17T12:17:40.897Z,48.05
2022-10-17T12:22:56.549Z,47.79
2022-10-17T12:28:07.148Z,48.00
2022-10-17T12:33:28.796Z,47.44
2022-10-17T12:38:30.637Z,47.47
2022-10-17T12:43:56.167Z,47.30
2022-10-17T12:49:20.304Z,46.85
2022-10-17T12:54:22.611Z,46.65
2022-10-17T12:59:27.355Z,46.52
2022-10-17T13:04:31.011Z,46.43
2022-10-17T13:09:38.731Z,46.42
2022-10-17T13:14:43.281Z,46.64
2022-10-17T13:19:46.370Z,46.88
2022-10-17T13:24:50.019Z,46.68
2022-10-17T13:29:51.954Z,46.80
2022-10-17T13:35:12.262Z,46.43
2022-10-17T13:40:49.625Z,46.19
2022-10-17T13:45:52.422Z,46.02
2022-10-17T13:50:59.255Z,45.99
2022-10-17T13:56:27.203Z,45.85
2022-10-17T14:01:30.316Z,46.19
2022-10-17T14:06:32.245Z,46.12
2022-10-17T14:11:35.873Z,46.15
2022-10-17T14:16:40.963Z,46.35
2022-10-17T14:21:48.527Z,46.58
2022-10-17T14:26:53.093Z,46.46
2022-10-17T14:32:13.402Z,46.58
2022-10-17T14:37:44.642Z,46.83
2022-10-17T14:42:48.378Z,46.98
2022-10-17T14:47:51.856Z,47.16
2022-10-17T14:53:01.340Z,47.48
2022-10-17T14:58:22.774Z,47.78
2022-10-17T15:03:25.659Z,48.15
2022-10-17T15:08:27.498Z,48.43
2022-10-17T15:13:31.338Z,48.76
2022-10-17T15:18:37.681Z,49.12
2022-10-17T15:23:39.989Z,49.60
2022-10-17T15:28:42.863Z,50.01
2022-10-17T15:33:45.624Z,50.54
2022-10-17T15:38:48.367Z,50.68
2022-10-17T15:43:50.493Z,50.73
2022-10-17T15:48:54.312Z,51.08
2022-10-17T15:53:56.222Z,51.50
2022-10-17T15:58:58.558Z,51.95
2022-10-17T16:04:01.021Z,52.52
2022-10-17T16:09:07.096Z,53.16
2022-10-17T16:14:14.925Z,53.81
2022-10-17T16:19:29.780Z,54.66
2022-10-17T16:24:32.458Z,55.29
2022-10-17T16:29:34.386Z,56.09
2022-10-17T16:34:37.510Z,56.80
2022-10-17T16:39:40.888Z,57.90
2022-10-17T16:44:43.092Z,58.26
2022-10-17T16:49:47.187Z,59.16
2022-10-17T16:55:08.767Z,59.89
2022-10-17T17:00:38.813Z,60.96
2022-10-17T17:05:40.876Z,62.19
2022-10-17T17:10:53.542Z,63.06
2022-10-17T17:16:06.838Z,63.74
2022-10-17T17:21:13.421Z,63.55
2022-10-17T17:26:21.345Z,63.73
2022-10-17T17:31:26.362Z,63.93
2022-10-17T17:36:34.120Z,64.43
2022-10-17T17:41:36.311Z,64.31
2022-10-17T17:46:38.211Z,64.47
2022-10-17T17:51:41.530Z,64.68
2022-10-17T17:56:43.611Z,64.69
2022-10-17T18:01:45.570Z,65.07
2022-10-17T18:06:47.482Z,65.54
2022-10-17T18:11:49.519Z,66.35
2022-10-17T18:16:51.887Z,66.82
2022-10-17T18:21:57.753Z,67.89
2022-10-17T18:27:06.825Z,68.80
2022-10-17T18:32:10.851Z,68.92
2022-10-17T18:37:13.007Z,69.03
2022-10-17T18:42:14.952Z,68.89
2022-10-17T18:47:16.919Z,68.64
2022-10-17T18:52:18.708Z,69.34
2022-10-17T18:57:26.063Z,69.85
2022-10-17T19:02:28.274Z,70.62
2022-10-17T19:07:35.145Z,71.40
2022-10-17T19:12:36.932Z,71.83
2022-10-17T19:17:38.970Z,71.39
2022-10-17T19:22:40.802Z,71.40
2022-10-17T19:27:42.851Z,71.03
2022-10-17T19:32:44.768Z,71.99
2022-10-17T19:37:46.662Z,72.63
2022-10-17T19:42:51.293Z,72.83
2022-10-17T19:47:53.112Z,72.38
2022-10-17T19:52:55.097Z,72.35
2022-10-17T19:57:59.243Z,72.97
2022-10-17T20:03:02.532Z,72.87
2022-10-17T20:08:06.944Z,72.84
2022-10-17T20:13:09.556Z,72.83
2022-10-17T20:18:11.339Z,72.78
2022-10-17T20:23:13.308Z,73.04
2022-10-17T20:28:15.538Z,72.95
2022-10-17T20:33:17.416Z,72.84
2022-10-17T20:38:19.796Z,72.58
2022-10-17T20:43:21.717Z,72.22
2022-10-17T20:48:23.920Z,72.24
2022-10-17T20:53:36.659Z,72.16
2022-10-17T20:58:39.701Z,72.01
2022-10-17T21:03:44.037Z,72.21
2022-10-17T21:08:51.916Z,72.40
2022-10-17T21:13:58.121Z,72.22
2022-10-17T21:19:01.081Z,72.19
2022-10-17T21:24:06.994Z,72.67
2022-10-17T21:29:10.043Z,72.81
2022-10-17T21:34:19.013Z,73.12
2022-10-17T21:39:22.965Z,73.33
2022-10-17T21:44:26.785Z,73.18
2022-10-17T21:49:29.836Z,73.42
2022-10-17T21:54:31.709Z,73.13
2022-10-17T21:59:35.287Z,73.56
2022-10-17T22:04:37.249Z,73.78
2022-10-17T22:09:39.091Z,74.00
2022-10-17T22:14:41.232Z,74.11
2022-10-17T22:19:42.965Z,74.26
2022-10-17T22:24:44.857Z,74.31
2022-10-17T22:29:46.733Z,74.45
2022-10-17T22:34:48.570Z,74.86
2022-10-17T22:39:50.293Z,75.03
2022-10-17T22:44:52.136Z,75.74
2022-10-17T22:49:53.958Z,76.41
2022-10-17T22:54:56.161Z,76.33
2022-10-17T22:59:58.018Z,77.06
2022-10-17T23:05:00.475Z,77.51
2022-10-17T23:10:03.064Z,78.35
2022-10-17T23:15:07.282Z,79.19
2022-10-17T23:20:09.340Z,79.59
2022-10-17T23:25:11.215Z,79.86
2022-10-17T23:30:13.363Z,79.93
2022-10-17T23:35:15.378Z,79.97
2022-10-17T23:40:17.415Z,80.14
2022-10-17T23:45:19.626Z,80.42
2022-10-17T23:50:21.569Z,80.59
2022-10-17T23:55:23.679Z,81.15
